createdAt,value
2023-05-23T00:00:55.887Z,13.13
2023-05-23T00:03:25.725Z,11.70
2023-05-23T00:05:56.632Z,11.65
2023-05-23T00:08:27.861Z,11.70
2023-05-23T00:10:57.414Z,12.15
2023-05-23T00:13:27.023Z,12.60
2023-05-23T00:15:57.382Z,12.40
2023-05-23T00:18:27.033Z,11.70
2023-05-23T00:20:57.498Z,12.13
2023-05-23T00:23:29.795Z,14.52
2023-05-23T00:26:00.315Z,16.67
2023-05-23T00:28:29.902Z,14.05
2023-05-23T00:30:59.515Z,12.40
2023-05-23T00:33:29.821Z,13.65
2023-05-23T00:35:59.635Z,13.55
2023-05-23T00:38:30.656Z,11.52
2023-05-23T00:41:00.206Z,14.95
2023-05-23T00:43:29.935Z,13.30
2023-05-23T00:46:00.060Z,12.25
2023-05-23T00:48:30.482Z,12.07
2023-05-23T00:51:00.734Z,12.25
2023-05-23T00:53:31.911Z,13.98
2023-05-23T00:56:01.698Z,13.07
2023-05-23T00:58:32.077Z,13.23
2023-05-23T01:01:01.913Z,12.20
2023-05-23T01:03:31.662Z,14.80
2023-05-23T01:06:02.395Z,12.70
2023-05-23T01:08:33.356Z,14.27
2023-05-23T01:11:15.875Z,15.98
2023-05-23T01:13:57.458Z,13.65
2023-05-23T01:16:39.986Z,14.18
2023-05-23T01:19:53.332Z,14.50
2023-05-23T01:22:46.695Z,15.20
2023-05-23T01:25:41.257Z,15.45
2023-05-23T01:28:18.815Z,15.52
2023-05-23T01:30:53.422Z,14.25
2023-05-23T01:33:25.429Z,14.80
2023-05-23T01:35:57.858Z,14.32
2023-05-23T01:38:27.488Z,16.77
2023-05-23T01:40:57.259Z,17.05
2023-05-23T01:43:28.349Z,18.88
2023-05-23T01:45:58.898Z,16.02
2023-05-23T01:48:30.623Z,16.95
2023-05-23T01:51:01.052Z,15.68
2023-05-23T01:53:32.536Z,16.98
2023-05-23T01:56:03.488Z,15.43
2023-05-23T01:58:34.745Z,17.63
2023-05-23T02:01:04.457Z,22.00
2023-05-23T02:03:34.633Z,17.58
2023-05-23T02:06:04.384Z,16.98
2023-05-23T02:08:33.976Z,19.10
2023-05-23T02:11:05.190Z,17.00
2023-05-23T02:13:36.159Z,18.80
2023-05-23T02:16:06.733Z,25.70
2023-05-23T02:18:38.311Z,17.92
2023-05-23T02:21:08.138Z,18.58
2023-05-23T02:23:40.453Z,20.13
2023-05-23T02:26:11.322Z,16.65
2023-05-23T02:28:42.360Z,16.98
2023-05-23T02:31:12.561Z,18.05
2023-05-23T02:33:42.177Z,17.80
2023-05-23T02:36:11.752Z,19.75
2023-05-23T02:38:41.432Z,16.90
2023-05-23T02:41:11.281Z,20.52
2023-05-23T02:43:42.206Z,18.35
2023-05-23T02:46:13.672Z,19.38
2023-05-23T02:48:43.307Z,20.45
2023-05-23T02:51:13.759Z,17.10
2023-05-23T02:53:43.494Z,18.05
2023-05-23T02:56:13.804Z,18.85
2023-05-23T02:58:44.746Z,17.02
2023-05-23T03:01:14.477Z,20.27
2023-05-23T03:03:44.075Z,22.08
2023-05-23T03:06:16.928Z,18.45
2023-05-23T03:11:16.366Z,20.52
2023-05-23T03:13:48.391Z,18.92
2023-05-23T03:16:18.182Z,19.13
2023-05-23T03:18:47.797Z,19.05
2023-05-23T03:21:19.637Z,18.70
2023-05-23T03:23:50.125Z,18.87
2023-05-23T03:26:21.878Z,20.45
2023-05-23T03:28:52.824Z,22.80
2023-05-23T03:31:22.710Z,20.95
2023-05-23T03:33:53.668Z,21.10
2023-05-23T03:36:25.945Z,20.98
2023-05-23T03:38:55.750Z,21.38
2023-05-23T03:41:26.239Z,23.08
2023-05-23T03:43:57.296Z,22.60
2023-05-23T03:46:27.964Z,22.60
2023-05-23T03:48:57.606Z,23.10
2023-05-23T03:51:28.129Z,21.10
2023-05-23T03:53:57.866Z,21.88
2023-05-23T03:56:27.541Z,19.35
2023-05-23T03:58:58.525Z,22.08
2023-05-23T04:01:28.910Z,22.27
2023-05-23T04:04:00.410Z,22.48
2023-05-23T04:06:33.610Z,21.02
2023-05-23T04:09:03.419Z,21.00
2023-05-23T04:11:34.886Z,21.98
2023-05-23T04:14:05.759Z,21.88
2023-05-23T04:16:36.347Z,21.98
2023-05-23T04:19:06.251Z,24.17
2023-05-23T04:21:36.062Z,23.05
2023-05-23T04:24:11.418Z,27.38
2023-05-23T04:26:41.351Z,24.45
2023-05-23T04:29:13.160Z,24.40
2023-05-23T04:31:45.938Z,25.48
2023-05-23T04:36:46.876Z,23.70
2023-05-23T04:39:17.100Z,22.13
2023-05-23T04:42:02.735Z,26.27
2023-05-23T04:44:50.585Z,23.65
2023-05-23T04:47:29.035Z,23.80
2023-05-23T04:50:07.711Z,26.05
2023-05-23T04:52:37.532Z,31.95
2023-05-23T04:55:08.645Z,23.55
2023-05-23T04:57:38.801Z,23.98
2023-05-23T05:00:14.764Z,25.05
2023-05-23T05:02:44.596Z,27.58
2023-05-23T05:05:14.174Z,26.65
2023-05-23T05:07:43.828Z,22.92
2023-05-23T05:10:16.972Z,27.25
2023-05-23T05:12:49.538Z,26.73
2023-05-23T05:15:21.409Z,22.00
2023-05-23T05:17:56.458Z,22.67
2023-05-23T05:20:26.372Z,22.92
2023-05-23T05:23:00.147Z,23.00
2023-05-23T05:25:32.312Z,23.55
2023-05-23T05:28:06.074Z,25.83
2023-05-23T05:30:41.113Z,21.05
2023-05-23T05:33:11.323Z,24.90
2023-05-23T05:35:41.947Z,23.45
2023-05-23T05:38:11.719Z,23.02
2023-05-23T05:40:42.951Z,25.23
2023-05-23T05:43:13.380Z,29.00
2023-05-23T05:45:46.169Z,27.90
2023-05-23T05:48:16.655Z,27.30
2023-05-23T05:50:46.989Z,25.33
2023-05-23T05:53:16.997Z,25.38
2023-05-23T05:55:47.083Z,29.90
2023-05-23T05:58:17.644Z,30.60
2023-05-23T06:00:59.147Z,27.67
2023-05-23T06:03:29.107Z,28.63
2023-05-23T06:05:59.577Z,30.05
2023-05-23T06:08:29.286Z,31.58
2023-05-23T06:10:58.916Z,30.67
2023-05-23T06:13:30.546Z,32.05
2023-05-23T06:16:02.064Z,33.20
2023-05-23T06:18:31.698Z,34.25
2023-05-23T06:21:03.205Z,35.70
2023-05-23T06:23:33.367Z,30.48
2023-05-23T06:26:03.466Z,31.75
2023-05-23T06:28:33.321Z,30.98
2023-05-23T06:31:04.579Z,35.92
2023-05-23T06:33:34.524Z,33.55
2023-05-23T06:36:04.640Z,31.17
2023-05-23T06:38:35.096Z,30.65
2023-05-23T06:41:07.242Z,33.97
2023-05-23T06:43:38.209Z,32.25
2023-05-23T06:46:24.207Z,29.75
2023-05-23T06:49:06.450Z,30.05
2023-05-23T06:51:44.139Z,28.35
2023-05-23T06:54:14.361Z,35.15
2023-05-23T06:56:44.309Z,29.77
2023-05-23T06:59:14.310Z,31.73
2023-05-23T07:01:45.778Z,29.30
2023-05-23T07:04:16.870Z,31.63
2023-05-23T07:06:46.803Z,32.33
2023-05-23T07:09:16.725Z,33.95
2023-05-23T07:11:46.625Z,29.25
2023-05-23T07:14:18.635Z,28.02
2023-05-23T07:16:50.335Z,32.67
2023-05-23T07:19:20.280Z,29.02
2023-05-23T07:21:55.198Z,26.95
2023-05-23T07:24:25.851Z,29.42
2023-05-23T07:26:59.585Z,26.77
2023-05-23T07:29:30.193Z,27.88
2023-05-23T07:32:25.157Z,31.40
2023-05-23T07:35:32.613Z,41.33
2023-05-23T07:38:08.382Z,29.83
2023-05-23T07:40:50.140Z,30.80
2023-05-23T07:43:35.843Z,32.20
2023-05-23T07:46:13.984Z,28.88
2023-05-23T07:59:02.885Z,32.20
2023-05-23T08:01:48.856Z,29.27
2023-05-23T08:04:44.135Z,26.80
2023-05-23T08:08:10.736Z,26.80
2023-05-23T08:13:38.439Z,27.85
2023-05-23T08:16:46.417Z,29.38
2023-05-23T08:19:22.447Z,28.58
2023-05-23T08:21:53.259Z,31.38
2023-05-23T08:24:23.429Z,28.15
2023-05-23T08:26:53.237Z,30.70
2023-05-23T08:29:26.007Z,31.98
2023-05-23T08:31:56.030Z,30.73
2023-05-23T08:34:26.632Z,28.55
2023-05-23T08:36:56.508Z,29.90
2023-05-23T08:39:27.015Z,31.10
2023-05-23T08:42:16.038Z,28.83
2023-05-23T08:44:48.020Z,33.08
2023-05-23T08:47:20.543Z,31.60
2023-05-23T08:49:57.943Z,31.00
2023-05-23T08:52:31.380Z,30.50
2023-05-23T08:55:03.984Z,30.00
2023-05-23T08:57:36.832Z,31.83
2023-05-23T09:00:25.149Z,31.77
2023-05-23T09:02:55.112Z,32.30
2023-05-23T09:05:43.487Z,31.48
2023-05-23T09:08:13.243Z,32.50
2023-05-23T09:10:43.762Z,32.55
2023-05-23T09:13:15.430Z,36.27
2023-05-23T09:16:04.484Z,29.02
2023-05-23T09:18:42.470Z,33.67
2023-05-23T09:21:15.297Z,34.53
2023-05-23T09:24:10.858Z,28.55
2023-05-23T09:26:40.688Z,33.55
2023-05-23T09:29:10.302Z,28.67
2023-05-23T09:31:41.331Z,30.67
2023-05-23T09:34:11.224Z,33.70
2023-05-23T09:36:44.228Z,31.50
2023-05-23T09:39:14.279Z,31.27
2023-05-23T09:41:44.470Z,31.92
2023-05-23T09:44:25.024Z,30.67
2023-05-23T09:46:56.065Z,30.95
2023-05-23T09:49:27.867Z,32.38
2023-05-23T09:52:02.422Z,31.33
2023-05-23T09:54:32.208Z,29.90
2023-05-23T09:57:04.409Z,31.42
2023-05-23T09:59:36.395Z,30.75
2023-05-23T10:02:10.213Z,32.88
2023-05-23T10:04:42.413Z,32.85
2023-05-23T10:07:17.229Z,32.17
2023-05-23T10:09:56.915Z,29.17
2023-05-23T10:12:51.415Z,27.88
2023-05-23T10:15:24.033Z,28.58
2023-05-23T10:18:11.962Z,29.67
2023-05-23T10:20:45.203Z,28.92
2023-05-23T10:23:15.122Z,26.52
2023-05-23T10:25:46.641Z,26.50
2023-05-23T10:28:17.116Z,28.52
2023-05-23T10:30:48.137Z,26.17
2023-05-23T10:33:20.321Z,28.25
2023-05-23T10:36:10.525Z,26.70
2023-05-23T10:38:54.655Z,25.40
2023-05-23T10:41:32.843Z,25.70
2023-05-23T10:44:14.173Z,24.67
2023-05-23T10:46:55.316Z,23.95
2023-05-23T10:49:40.195Z,23.38
2023-05-23T10:52:12.223Z,22.75
2023-05-23T10:54:47.684Z,22.20
2023-05-23T10:57:20.699Z,21.95
2023-05-23T10:59:52.922Z,22.73
2023-05-23T11:02:30.623Z,21.95
2023-05-23T11:05:23.504Z,22.58
2023-05-23T11:08:10.799Z,22.23
2023-05-23T11:10:55.437Z,23.05
2023-05-23T11:13:25.426Z,22.05
2023-05-23T11:15:55.113Z,22.08
2023-05-23T11:18:28.976Z,22.05
2023-05-23T11:21:02.170Z,21.85
2023-05-23T11:23:42.625Z,20.67
2023-05-23T11:26:31.145Z,19.75
2023-05-23T11:29:03.507Z,23.33
2023-05-23T11:34:08.832Z,19.60
2023-05-23T11:36:40.717Z,21.73
2023-05-23T11:39:10.611Z,21.23
2023-05-23T11:41:40.491Z,19.48
2023-05-23T11:44:14.175Z,18.73
2023-05-23T11:46:43.770Z,19.58
2023-05-23T11:49:13.662Z,18.38
2023-05-23T11:51:44.566Z,19.27
2023-05-23T11:54:14.362Z,19.15
2023-05-23T11:56:44.212Z,18.75
2023-05-23T11:59:13.741Z,18.85
2023-05-23T12:01:44.607Z,17.65
2023-05-23T12:04:14.291Z,18.08
2023-05-23T12:06:49.304Z,18.40
2023-05-23T12:09:18.877Z,17.13
2023-05-23T12:11:50.796Z,18.50
2023-05-23T12:14:20.369Z,17.73
2023-05-23T12:16:50.109Z,15.98
2023-05-23T12:19:20.861Z,18.13
2023-05-23T12:21:52.199Z,16.40
2023-05-23T12:24:23.546Z,16.92
2023-05-23T12:26:55.902Z,17.63
2023-05-23T12:29:34.792Z,17.77
2023-05-23T12:32:09.326Z,16.85
2023-05-23T12:34:43.607Z,15.00
2023-05-23T12:37:19.483Z,16.85
2023-05-23T12:39:49.943Z,14.63
2023-05-23T12:42:19.529Z,15.60
2023-05-23T12:44:54.952Z,14.52
2023-05-23T12:47:24.704Z,19.00
2023-05-23T12:49:54.413Z,17.05
2023-05-23T12:52:25.386Z,17.00
2023-05-23T12:54:54.914Z,16.10
2023-05-23T12:57:51.335Z,15.43
2023-05-23T13:00:23.114Z,16.52
2023-05-23T13:02:52.748Z,16.75
2023-05-23T13:05:22.538Z,16.52
2023-05-23T13:07:53.434Z,19.20
2023-05-23T13:10:23.121Z,16.10
2023-05-23T13:12:52.849Z,16.00
2023-05-23T13:15:22.646Z,15.18
2023-05-23T13:17:52.242Z,15.00
2023-05-23T13:20:22.237Z,14.20
2023-05-23T13:22:55.728Z,16.10
2023-05-23T13:25:25.960Z,17.60
2023-05-23T13:27:57.020Z,15.20
2023-05-23T13:30:26.731Z,15.40
2023-05-23T13:32:56.733Z,15.43
2023-05-23T13:35:26.327Z,15.02
2023-05-23T13:37:57.249Z,15.65
2023-05-23T13:40:27.373Z,17.08
2023-05-23T13:42:57.306Z,14.52
2023-05-23T13:45:27.134Z,15.48
2023-05-23T13:47:56.806Z,15.27
2023-05-23T13:50:26.537Z,16.50
2023-05-23T13:52:57.716Z,14.65
2023-05-23T13:55:27.836Z,14.15
2023-05-23T13:57:57.464Z,16.80
2023-05-23T14:00:26.932Z,14.70
2023-05-23T14:02:56.674Z,15.48
2023-05-23T14:05:26.315Z,15.40
2023-05-23T14:07:57.220Z,14.43
2023-05-23T14:10:26.718Z,16.90
2023-05-23T14:12:56.220Z,14.80
2023-05-23T14:15:25.883Z,14.20
2023-05-23T14:17:56.310Z,14.77
2023-05-23T14:20:26.377Z,14.23
2023-05-23T14:22:57.418Z,14.60
2023-05-23T14:25:26.948Z,14.07
2023-05-23T14:27:56.803Z,17.40
2023-05-23T14:30:26.329Z,15.23
2023-05-23T14:32:56.132Z,14.30
2023-05-23T14:35:26.271Z,15.18
2023-05-23T14:37:57.213Z,16.70
2023-05-23T14:40:26.768Z,14.38
2023-05-23T14:42:56.308Z,16.02
2023-05-23T14:45:25.835Z,16.02
2023-05-23T14:47:55.832Z,14.63
2023-05-23T14:50:26.419Z,12.63
2023-05-23T14:52:57.487Z,12.75
2023-05-23T14:55:27.255Z,12.50
2023-05-23T14:57:57.880Z,12.88
2023-05-23T15:00:27.561Z,13.27
2023-05-23T15:02:57.159Z,13.52
2023-05-23T15:05:27.011Z,13.77
2023-05-23T15:07:58.078Z,15.00
2023-05-23T15:10:27.577Z,13.40
2023-05-23T15:12:57.273Z,17.65
2023-05-23T15:15:27.130Z,12.80
2023-05-23T15:17:57.027Z,14.73
2023-05-23T15:20:26.574Z,11.98
2023-05-23T15:22:57.460Z,12.48
2023-05-23T15:25:47.329Z,12.63
2023-05-23T15:28:17.567Z,11.93
2023-05-23T15:30:47.362Z,12.38
2023-05-23T15:33:16.973Z,12.23
2023-05-23T15:35:46.557Z,11.70
2023-05-23T15:38:19.243Z,12.18
2023-05-23T15:40:52.562Z,11.25
2023-05-23T15:45:52.547Z,10.32
2023-05-23T15:48:22.226Z,10.65
2023-05-23T15:50:51.796Z,9.85
2023-05-23T15:53:22.692Z,10.68
2023-05-23T15:55:52.185Z,9.10
2023-05-23T15:58:21.851Z,9.02
2023-05-23T16:00:51.433Z,11.00
2023-05-23T16:03:21.129Z,12.73
2023-05-23T16:05:51.198Z,9.40
2023-05-23T16:08:22.131Z,10.35
2023-05-23T16:10:51.699Z,9.20
2023-05-23T16:13:21.608Z,9.10
2023-05-23T16:15:51.266Z,8.00
2023-05-23T16:18:23.408Z,9.60
2023-05-23T16:20:53.649Z,8.57
2023-05-23T16:23:25.028Z,8.48
2023-05-23T16:25:54.873Z,8.65
2023-05-23T16:28:24.774Z,7.68
2023-05-23T16:30:55.710Z,7.38
2023-05-23T16:33:25.552Z,8.23
2023-05-23T16:35:55.384Z,7.30
2023-05-23T16:38:26.309Z,6.22
2023-05-23T16:40:56.439Z,8.60
2023-05-23T16:43:26.508Z,6.88
2023-05-23T16:45:56.062Z,11.32
2023-05-23T16:48:25.698Z,6.15
2023-05-23T16:50:55.769Z,5.53
2023-05-23T16:53:26.799Z,6.60
2023-05-23T16:55:56.312Z,8.60
2023-05-23T16:58:25.914Z,9.27
2023-05-23T17:00:55.630Z,5.15
2023-05-23T17:03:25.700Z,5.57
2023-05-23T17:05:55.828Z,6.07
2023-05-23T17:08:26.756Z,7.95
2023-05-23T17:10:56.319Z,5.45
2023-05-23T17:13:26.026Z,4.63
2023-05-23T17:15:55.884Z,4.47
2023-05-23T17:18:25.600Z,5.53
2023-05-23T17:20:55.185Z,5.28
2023-05-23T17:23:26.143Z,6.90
2023-05-23T17:25:56.228Z,4.32
2023-05-23T17:28:25.782Z,6.22
2023-05-23T17:30:55.612Z,4.03
2023-05-23T17:33:25.154Z,4.85
2023-05-23T17:35:54.692Z,6.45
2023-05-23T17:38:24.361Z,4.35
2023-05-23T17:40:55.592Z,5.03
2023-05-23T17:43:25.120Z,3.53
2023-05-23T17:45:56.214Z,4.45
2023-05-23T17:48:45.177Z,5.82
2023-05-23T17:51:16.823Z,6.78
2023-05-23T17:53:46.415Z,4.13
2023-05-23T17:56:17.497Z,3.47
2023-05-23T17:58:47.344Z,7.63
2023-05-23T18:01:17.141Z,4.80
2023-05-23T18:03:48.896Z,6.55
2023-05-23T18:06:18.901Z,4.28
2023-05-23T18:08:50.031Z,3.88
2023-05-23T18:11:21.444Z,5.47
2023-05-23T18:13:51.355Z,5.10
2023-05-23T18:16:21.428Z,3.45
2023-05-23T18:18:51.448Z,4.28
2023-05-23T18:21:21.245Z,2.85
2023-05-23T18:23:50.825Z,3.00
2023-05-23T18:26:21.701Z,2.78
2023-05-23T18:28:51.375Z,3.45
2023-05-23T18:31:21.199Z,5.45
2023-05-23T18:33:50.765Z,5.60
2023-05-23T18:36:20.453Z,3.83
2023-05-23T18:38:50.207Z,3.63
2023-05-23T18:41:22.300Z,3.25
2023-05-23T18:43:52.208Z,3.08
2023-05-23T18:46:24.018Z,4.45
2023-05-23T18:48:53.739Z,4.87
2023-05-23T18:51:23.411Z,3.78
2023-05-23T18:53:53.073Z,3.53
2023-05-23T18:56:24.321Z,4.32
2023-05-23T18:58:53.968Z,3.47
2023-05-23T19:01:23.711Z,4.10
2023-05-23T19:03:53.411Z,3.42
2023-05-23T19:06:23.256Z,4.03
2023-05-23T19:08:52.848Z,5.10
2023-05-23T19:11:23.760Z,4.00
2023-05-23T19:13:53.664Z,4.10
2023-05-23T19:16:24.089Z,3.35
2023-05-23T19:18:53.763Z,5.10
2023-05-23T19:21:23.483Z,3.70
2023-05-23T19:23:52.997Z,4.78
2023-05-23T19:26:24.025Z,4.65
2023-05-23T19:28:54.302Z,4.05
2023-05-23T19:31:24.026Z,3.80
2023-05-23T19:33:53.637Z,3.67
2023-05-23T19:36:23.635Z,4.90
2023-05-23T19:38:53.980Z,4.05
2023-05-23T19:41:27.098Z,3.78
2023-05-23T19:43:56.717Z,4.68
2023-05-23T19:46:30.153Z,4.25
2023-05-23T19:48:59.808Z,5.88
2023-05-23T19:51:29.900Z,6.22
2023-05-23T19:54:00.041Z,6.93
2023-05-23T19:56:31.375Z,8.00
2023-05-23T19:59:00.960Z,4.25
2023-05-23T20:01:36.431Z,4.60
2023-05-23T20:04:07.356Z,5.50
2023-05-23T20:06:37.183Z,4.30
2023-05-23T20:09:07.683Z,5.18
2023-05-23T20:11:38.910Z,6.00
2023-05-23T20:14:08.609Z,6.47
2023-05-23T20:16:38.754Z,4.78
2023-05-23T20:19:10.517Z,5.13
2023-05-23T20:21:40.301Z,5.90
2023-05-23T20:24:10.065Z,4.97
2023-05-23T20:26:41.222Z,4.30
2023-05-23T20:29:11.354Z,5.72
2023-05-23T20:31:41.205Z,5.85
2023-05-23T20:34:10.963Z,6.35
2023-05-23T20:36:40.615Z,6.50
2023-05-23T20:39:11.233Z,5.18
2023-05-23T20:41:43.670Z,4.28
2023-05-23T20:44:15.835Z,6.82
2023-05-23T20:46:45.659Z,4.40
2023-05-23T20:49:15.848Z,3.92
2023-05-23T20:51:45.744Z,6.00
2023-05-23T20:54:16.046Z,4.60
2023-05-23T20:56:47.393Z,6.47
2023-05-23T20:59:17.989Z,4.90
2023-05-23T21:01:48.052Z,4.53
2023-05-23T21:04:18.925Z,5.40
2023-05-23T21:06:48.846Z,6.03
2023-05-23T21:09:18.569Z,6.68
2023-05-23T21:11:49.784Z,5.10
2023-05-23T21:14:21.533Z,4.40
2023-05-23T21:16:51.811Z,5.10
2023-05-23T21:19:21.512Z,6.90
2023-05-23T21:21:53.136Z,6.75
2023-05-23T21:24:23.605Z,5.35
2023-05-23T21:26:57.896Z,5.38
2023-05-23T21:29:27.810Z,6.93
2023-05-23T21:31:58.020Z,5.82
2023-05-23T21:34:27.735Z,5.47
2023-05-23T21:37:00.093Z,4.85
2023-05-23T21:39:42.952Z,6.97
2023-05-23T21:42:18.309Z,6.35
2023-05-23T21:44:47.945Z,5.47
2023-05-23T21:47:17.613Z,5.07
2023-05-23T21:49:47.113Z,6.13
2023-05-23T21:52:16.729Z,6.43
2023-05-23T21:54:46.882Z,5.82
2023-05-23T21:57:18.270Z,5.65
2023-05-23T21:59:47.757Z,7.05
2023-05-23T22:02:17.384Z,6.75
2023-05-23T22:04:46.920Z,7.85
2023-05-23T22:07:16.515Z,7.78
2023-05-23T22:09:46.262Z,6.63
2023-05-23T22:12:19.550Z,4.97
2023-05-23T22:14:50.660Z,6.65
2023-05-23T22:17:22.362Z,5.70
2023-05-23T22:19:52.795Z,5.38
2023-05-23T22:22:22.283Z,5.60
2023-05-23T22:24:51.826Z,5.75
2023-05-23T22:27:22.803Z,5.20
2023-05-23T22:29:52.431Z,5.53
2023-05-23T22:32:21.974Z,6.35
2023-05-23T22:34:51.586Z,5.63
2023-05-23T22:37:21.298Z,5.28
2023-05-23T22:39:50.857Z,4.88
2023-05-23T22:42:20.501Z,6.28
2023-05-23T22:44:51.441Z,7.32
2023-05-23T22:47:21.100Z,5.38
2023-05-23T22:49:53.988Z,6.28
2023-05-23T22:52:25.405Z,6.95
2023-05-23T22:54:55.025Z,6.10
2023-05-23T22:57:24.635Z,6.50
2023-05-23T22:59:56.043Z,11.27
2023-05-23T23:02:25.767Z,6.63
2023-05-23T23:04:55.647Z,5.20
2023-05-23T23:07:25.147Z,5.53
2023-05-23T23:09:54.750Z,5.30
2023-05-23T23:12:24.372Z,5.90
2023-05-23T23:14:55.850Z,6.18
2023-05-23T23:17:25.496Z,5.68
2023-05-23T23:19:55.694Z,5.25
2023-05-23T23:22:25.474Z,6.30
2023-05-23T23:24:55.758Z,7.07
2023-05-23T23:27:30.715Z,4.72
2023-05-23T23:30:01.700Z,6.57
2023-05-23T23:32:33.986Z,7.57
2023-05-23T23:35:04.212Z,5.57
2023-05-23T23:37:35.475Z,5.70
2023-05-23T23:40:06.243Z,6.05
2023-05-23T23:42:35.895Z,6.70
2023-05-23T23:45:08.527Z,5.32
2023-05-23T23:47:38.115Z,6.35
2023-05-23T23:50:10.107Z,5.18
2023-05-23T23:52:39.620Z,5.55
2023-05-23T23:55:10.356Z,6.13
2023-05-23T23:57:40.057Z,5.32
